sensor_id;sensor_type;location;lat;lon;timestamp;P1;durP1;ratioP1;P2;durP2;ratioP2
12900;SDS011;6518;50.930;5.344;2023-04-15T00:01:10;7.03;;;4.43;;
12900;SDS011;6518;50.930;5.344;2023-04-15T00:03:37;6.37;;;4.17;;
12900;SDS011;6518;50.930;5.344;2023-04-15T00:06:05;6.47;;;3.93;;
12900;SDS011;6518;50.930;5.344;2023-04-15T00:08:32;7.97;;;4.07;;
12900;SDS011;6518;50.930;5.344;2023-04-15T00:10:59;8.37;;;4.30;;
12900;SDS011;6518;50.930;5.344;2023-04-15T00:13:27;11.30;;;4.50;;
12900;SDS011;6518;50.930;5.344;2023-04-15T00:15:54;6.37;;;3.77;;
12900;SDS011;6518;50.930;5.344;2023-04-15T00:18:20;6.30;;;3.70;;
12900;SDS011;6518;50.930;5.344;2023-04-15T00:20:48;10.43;;;3.47;;
12900;SDS011;6518;50.930;5.344;2023-04-15T00:23:16;8.30;;;3.80;;
12900;SDS011;6518;50.930;5.344;2023-04-15T00:25:43;7.93;;;3.53;;
12900;SDS011;6518;50.930;5.344;2023-04-15T00:28:11;7.20;;;4.00;;
12900;SDS011;6518;50.930;5.344;2023-04-15T00:30:37;7.83;;;3.50;;
12900;SDS011;6518;50.930;5.344;2023-04-15T00:33:04;8.27;;;3.77;;
12900;SDS011;6518;50.930;5.344;2023-04-15T00:35:32;8.47;;;3.73;;
12900;SDS011;6518;50.930;5.344;2023-04-15T00:37:58;8.70;;;3.90;;
12900;SDS011;6518;50.930;5.344;2023-04-15T00:40:26;11.37;;;4.20;;
12900;SDS011;6518;50.930;5.344;2023-04-15T00:42:53;8.60;;;4.57;;
12900;SDS011;6518;50.930;5.344;2023-04-15T00:45:20;8.13;;;4.70;;
12900;SDS011;6518;50.930;5.344;2023-04-15T00:47:48;9.57;;;5.00;;
12900;SDS011;6518;50.930;5.344;2023-04-15T00:50:15;6.33;;;4.47;;
12900;SDS011;6518;50.930;5.344;2023-04-15T00:52:42;7.63;;;4.37;;
12900;SDS011;6518;50.930;5.344;2023-04-15T00:55:09;5.97;;;3.83;;
12900;SDS011;6518;50.930;5.344;2023-04-15T00:57:38;7.90;;;4.13;;
12900;SDS011;6518;50.930;5.344;2023-04-15T01:00:06;6.30;;;3.90;;
12900;SDS011;6518;50.930;5.344;2023-04-15T01:02:35;6.87;;;3.90;;
12900;SDS011;6518;50.930;5.344;2023-04-15T01:05:03;7.13;;;3.73;;
12900;SDS011;6518;50.930;5.344;2023-04-15T01:07:31;6.17;;;3.97;;
12900;SDS011;6518;50.930;5.344;2023-04-15T01:09:58;7.63;;;3.50;;
12900;SDS011;6518;50.930;5.344;2023-04-15T01:12:26;7.33;;;3.50;;
12900;SDS011;6518;50.930;5.344;2023-04-15T01:14:55;6.43;;;3.53;;
12900;SDS011;6518;50.930;5.344;2023-04-15T01:17:22;6.60;;;3.30;;
12900;SDS011;6518;50.930;5.344;2023-04-15T01:19:49;5.60;;;3.20;;
12900;SDS011;6518;50.930;5.344;2023-04-15T01:22:16;4.73;;;3.10;;
12900;SDS011;6518;50.930;5.344;2023-04-15T01:24:44;5.40;;;3.30;;
12900;SDS011;6518;50.930;5.344;2023-04-15T01:27:17;6.73;;;3.70;;
12900;SDS011;6518;50.930;5.344;2023-04-15T01:29:44;6.73;;;3.10;;
12900;SDS011;6518;50.930;5.344;2023-04-15T01:32:12;6.40;;;3.07;;
12900;SDS011;6518;50.930;5.344;2023-04-15T01:34:39;9.80;;;3.50;;
12900;SDS011;6518;50.930;5.344;2023-04-15T01:37:05;5.70;;;3.37;;
12900;SDS011;6518;50.930;5.344;2023-04-15T01:39:32;6.37;;;3.27;;
12900;SDS011;6518;50.930;5.344;2023-04-15T01:41:59;6.13;;;3.47;;
12900;SDS011;6518;50.930;5.344;2023-04-15T01:44:27;5.53;;;3.57;;
12900;SDS011;6518;50.930;5.344;2023-04-15T01:46:54;5.13;;;3.27;;
12900;SDS011;6518;50.930;5.344;2023-04-15T01:49:21;9.17;;;3.43;;
12900;SDS011;6518;50.930;5.344;2023-04-15T01:51:48;6.03;;;3.40;;
12900;SDS011;6518;50.930;5.344;2023-04-15T01:54:15;6.43;;;3.70;;
12900;SDS011;6518;50.930;5.344;2023-04-15T01:56:41;6.40;;;3.27;;
12900;SDS011;6518;50.930;5.344;2023-04-15T01:59:08;5.83;;;3.43;;
12900;SDS011;6518;50.930;5.344;2023-04-15T02:01:36;6.60;;;3.90;;
12900;SDS011;6518;50.930;5.344;2023-04-15T02:04:03;6.27;;;3.40;;
12900;SDS011;6518;50.930;5.344;2023-04-15T02:06:31;6.60;;;4.17;;
12900;SDS011;6518;50.930;5.344;2023-04-15T02:08:58;9.07;;;4.30;;
12900;SDS011;6518;50.930;5.344;2023-04-15T02:11:25;7.47;;;4.20;;
12900;SDS011;6518;50.930;5.344;2023-04-15T02:13:51;8.73;;;4.50;;
12900;SDS011;6518;50.930;5.344;2023-04-15T02:16:18;8.47;;;4.20;;
12900;SDS011;6518;50.930;5.344;2023-04-15T02:18:47;7.43;;;4.40;;
12900;SDS011;6518;50.930;5.344;2023-04-15T02:21:14;7.90;;;4.53;;
12900;SDS011;6518;50.930;5.344;2023-04-15T02:23:40;7.50;;;4.20;;
12900;SDS011;6518;50.930;5.344;2023-04-15T02:26:08;7.77;;;4.40;;
12900;SDS011;6518;50.930;5.344;2023-04-15T02:28:35;7.00;;;4.30;;
12900;SDS011;6518;50.930;5.344;2023-04-15T02:31:04;7.43;;;3.67;;
12900;SDS011;6518;50.930;5.344;2023-04-15T02:33:31;8.93;;;4.50;;
12900;SDS011;6518;50.930;5.344;2023-04-15T02:35:59;5.90;;;3.73;;
12900;SDS011;6518;50.930;5.344;2023-04-15T02:38:26;4.80;;;3.93;;
12900;SDS011;6518;50.930;5.344;2023-04-15T02:40:52;7.50;;;4.53;;
12900;SDS011;6518;50.930;5.344;2023-04-15T02:43:20;8.50;;;3.93;;
12900;SDS011;6518;50.930;5.344;2023-04-15T02:45:47;6.53;;;4.00;;
12900;SDS011;6518;50.930;5.344;2023-04-15T02:48:14;6.57;;;4.13;;
12900;SDS011;6518;50.930;5.344;2023-04-15T02:50:43;8.03;;;4.20;;
12900;SDS011;6518;50.930;5.344;2023-04-15T02:53:12;9.03;;;4.30;;
12900;SDS011;6518;50.930;5.344;2023-04-15T02:55:39;9.13;;;3.90;;
12900;SDS011;6518;50.930;5.344;2023-04-15T02:58:06;5.93;;;4.07;;
12900;SDS011;6518;50.930;5.344;2023-04-15T03:00:33;7.33;;;4.10;;
12900;SDS011;6518;50.930;5.344;2023-04-15T03:03:01;6.67;;;3.60;;
12900;SDS011;6518;50.930;5.344;2023-04-15T03:05:29;7.90;;;4.03;;
12900;SDS011;6518;50.930;5.344;2023-04-15T03:07:56;6.87;;;3.93;;
12900;SDS011;6518;50.930;5.344;2023-04-15T03:10:24;8.33;;;3.90;;
12900;SDS011;6518;50.930;5.344;2023-04-15T03:12:51;6.83;;;3.60;;
12900;SDS011;6518;50.930;5.344;2023-04-15T03:15:18;6.20;;;3.73;;
12900;SDS011;6518;50.930;5.344;2023-04-15T03:17:45;8.87;;;3.70;;
12900;SDS011;6518;50.930;5.344;2023-04-15T03:20:13;7.67;;;3.93;;
12900;SDS011;6518;50.930;5.344;2023-04-15T03:22:40;5.93;;;3.50;;
12900;SDS011;6518;50.930;5.344;2023-04-15T03:25:08;6.87;;;3.77;;
12900;SDS011;6518;50.930;5.344;2023-04-15T03:27:36;6.77;;;3.70;;
12900;SDS011;6518;50.930;5.344;2023-04-15T03:30:03;5.63;;;3.37;;
12900;SDS011;6518;50.930;5.344;2023-04-15T03:32:31;8.60;;;3.80;;
12900;SDS011;6518;50.930;5.344;2023-04-15T03:34:58;7.07;;;3.30;;
12900;SDS011;6518;50.930;5.344;2023-04-15T03:37:25;6.10;;;2.90;;
12900;SDS011;6518;50.930;5.344;2023-04-15T03:39:52;7.70;;;3.20;;
12900;SDS011;6518;50.930;5.344;2023-04-15T03:42:18;11.13;;;3.80;;
12900;SDS011;6518;50.930;5.344;2023-04-15T03:44:46;6.50;;;2.97;;
12900;SDS011;6518;50.930;5.344;2023-04-15T03:47:13;7.93;;;3.13;;
12900;SDS011;6518;50.930;5.344;2023-04-15T03:49:40;5.17;;;3.03;;
12900;SDS011;6518;50.930;5.344;2023-04-15T03:52:07;5.90;;;3.60;;
12900;SDS011;6518;50.930;5.344;2023-04-15T03:54:33;6.77;;;3.70;;
12900;SDS011;6518;50.930;5.344;2023-04-15T03:57:00;5.90;;;3.80;;
12900;SDS011;6518;50.930;5.344;2023-04-15T03:59:27;9.17;;;4.00;;
12900;SDS011;6518;50.930;5.344;2023-04-15T04:01:55;5.83;;;3.60;;
12900;SDS011;6518;50.930;5.344;2023-04-15T04:04:22;9.43;;;4.27;;
12900;SDS011;6518;50.930;5.344;2023-04-15T04:06:49;6.53;;;3.50;;
12900;SDS011;6518;50.930;5.344;2023-04-15T04:09:16;5.70;;;3.67;;
12900;SDS011;6518;50.930;5.344;2023-04-15T04:11:42;6.27;;;3.17;;
12900;SDS011;6518;50.930;5.344;2023-04-15T04:14:10;5.93;;;3.37;;
12900;SDS011;6518;50.930;5.344;2023-04-15T04:16:37;8.67;;;3.97;;
12900;SDS011;6518;50.930;5.344;2023-04-15T04:19:05;6.70;;;3.60;;
12900;SDS011;6518;50.930;5.344;2023-04-15T04:21:32;8.97;;;3.60;;
12900;SDS011;6518;50.930;5.344;2023-04-15T04:24:00;6.93;;;3.63;;
12900;SDS011;6518;50.930;5.344;2023-04-15T04:26:27;9.60;;;4.20;;
12900;SDS011;6518;50.930;5.344;2023-04-15T04:28:54;6.27;;;3.37;;
12900;SDS011;6518;50.930;5.344;2023-04-15T04:31:20;11.10;;;3.73;;
12900;SDS011;6518;50.930;5.344;2023-04-15T04:33:47;9.00;;;3.37;;
12900;SDS011;6518;50.930;5.344;2023-04-15T04:36:15;7.97;;;3.60;;
12900;SDS011;6518;50.930;5.344;2023-04-15T04:38:42;7.73;;;4.03;;
12900;SDS011;6518;50.930;5.344;2023-04-15T04:41:09;10.33;;;3.80;;
12900;SDS011;6518;50.930;5.344;2023-04-15T04:43:36;5.57;;;3.20;;
12900;SDS011;6518;50.930;5.344;2023-04-15T04:46:02;6.13;;;3.37;;
12900;SDS011;6518;50.930;5.344;2023-04-15T04:48:29;7.03;;;3.57;;
12900;SDS011;6518;50.930;5.344;2023-04-15T04:50:56;13.20;;;4.00;;
12900;SDS011;6518;50.930;5.344;2023-04-15T04:53:24;6.00;;;3.60;;
12900;SDS011;6518;50.930;5.344;2023-04-15T04:55:52;8.37;;;3.37;;
12900;SDS011;6518;50.930;5.344;2023-04-15T04:58:18;8.13;;;3.30;;
12900;SDS011;6518;50.930;5.344;2023-04-15T05:00:45;5.77;;;3.27;;
12900;SDS011;6518;50.930;5.344;2023-04-15T05:03:12;8.57;;;3.60;;
12900;SDS011;6518;50.930;5.344;2023-04-15T05:05:40;5.10;;;3.17;;
12900;SDS011;6518;50.930;5.344;2023-04-15T05:08:06;12.53;;;4.00;;
12900;SDS011;6518;50.930;5.344;2023-04-15T05:10:34;8.20;;;3.90;;
12900;SDS011;6518;50.930;5.344;2023-04-15T05:13:01;6.00;;;3.33;;
12900;SDS011;6518;50.930;5.344;2023-04-15T05:15:28;8.40;;;3.37;;
12900;SDS011;6518;50.930;5.344;2023-04-15T05:17:55;7.57;;;3.47;;
12900;SDS011;6518;50.930;5.344;2023-04-15T05:20:22;5.77;;;3.30;;
12900;SDS011;6518;50.930;5.344;2023-04-15T05:22:48;7.77;;;3.77;;
12900;SDS011;6518;50.930;5.344;2023-04-15T05:25:15;9.53;;;3.77;;
12900;SDS011;6518;50.930;5.344;2023-04-15T05:27:45;7.40;;;4.00;;
12900;SDS011;6518;50.930;5.344;2023-04-15T05:30:11;7.97;;;3.60;;
12900;SDS011;6518;50.930;5.344;2023-04-15T05:32:38;8.70;;;3.90;;
12900;SDS011;6518;50.930;5.344;2023-04-15T05:35:05;8.80;;;3.57;;
12900;SDS011;6518;50.930;5.344;2023-04-15T05:37:32;10.77;;;3.37;;
12900;SDS011;6518;50.930;5.344;2023-04-15T05:39:59;9.47;;;4.13;;
12900;SDS011;6518;50.930;5.344;2023-04-15T05:42:26;9.80;;;4.47;;
12900;SDS011;6518;50.930;5.344;2023-04-15T05:44:54;13.07;;;4.20;;
12900;SDS011;6518;50.930;5.344;2023-04-15T05:47:21;18.27;;;4.23;;
12900;SDS011;6518;50.930;5.344;2023-04-15T05:49:48;9.93;;;4.13;;
12900;SDS011;6518;50.930;5.344;2023-04-15T05:52:14;7.07;;;3.83;;
12900;SDS011;6518;50.930;5.344;2023-04-15T05:54:42;9.53;;;4.20;;
12900;SDS011;6518;50.930;5.344;2023-04-15T05:57:08;19.20;;;5.07;;
12900;SDS011;6518;50.930;5.344;2023-04-15T05:59:35;8.13;;;4.23;;
12900;SDS011;6518;50.930;5.344;2023-04-15T06:02:04;14.20;;;4.70;;
12900;SDS011;6518;50.930;5.344;2023-04-15T06:04:31;11.00;;;4.63;;
12900;SDS011;6518;50.930;5.344;2023-04-15T06:06:58;12.73;;;4.97;;
12900;SDS011;6518;50.930;5.344;2023-04-15T06:09:25;9.30;;;4.20;;
12900;SDS011;6518;50.930;5.344;2023-04-15T06:11:53;11.13;;;4.43;;
12900;SDS011;6518;50.930;5.344;2023-04-15T06:14:20;11.23;;;4.67;;
12900;SDS011;6518;50.930;5.344;2023-04-15T06:16:47;9.03;;;4.43;;
12900;SDS011;6518;50.930;5.344;2023-04-15T06:19:15;8.80;;;4.67;;
12900;SDS011;6518;50.930;5.344;2023-04-15T06:21:42;9.20;;;4.70;;
12900;SDS011;6518;50.930;5.344;2023-04-15T06:24:10;8.30;;;4.43;;
12900;SDS011;6518;50.930;5.344;2023-04-15T06:26:37;14.50;;;4.73;;
12900;SDS011;6518;50.930;5.344;2023-04-15T06:29:03;8.17;;;4.67;;
12900;SDS011;6518;50.930;5.344;2023-04-15T06:31:30;8.90;;;4.87;;
12900;SDS011;6518;50.930;5.344;2023-04-15T06:33:57;10.60;;;4.60;;
12900;SDS011;6518;50.930;5.344;2023-04-15T06:36:26;10.17;;;4.90;;
12900;SDS011;6518;50.930;5.344;2023-04-15T06:38:52;11.67;;;5.43;;
12900;SDS011;6518;50.930;5.344;2023-04-15T06:41:20;9.07;;;4.80;;
12900;SDS011;6518;50.930;5.344;2023-04-15T06:43:47;11.63;;;5.20;;
12900;SDS011;6518;50.930;5.344;2023-04-15T06:46:14;10.10;;;5.20;;
12900;SDS011;6518;50.930;5.344;2023-04-15T06:48:41;11.23;;;5.03;;
12900;SDS011;6518;50.930;5.344;2023-04-15T06:51:08;8.37;;;4.63;;
12900;SDS011;6518;50.930;5.344;2023-04-15T06:53:36;11.03;;;4.70;;
12900;SDS011;6518;50.930;5.344;2023-04-15T06:56:05;9.43;;;4.43;;
12900;SDS011;6518;50.930;5.344;2023-04-15T06:58:33;7.17;;;4.50;;
12900;SDS011;6518;50.930;5.344;2023-04-15T07:01:00;8.17;;;5.00;;
12900;SDS011;6518;50.930;5.344;2023-04-15T07:03:27;10.37;;;5.10;;
12900;SDS011;6518;50.930;5.344;2023-04-15T07:05:54;7.07;;;4.70;;
12900;SDS011;6518;50.930;5.344;2023-04-15T07:08:21;10.47;;;5.60;;
12900;SDS011;6518;50.930;5.344;2023-04-15T07:10:49;9.97;;;5.73;;
12900;SDS011;6518;50.930;5.344;2023-04-15T07:13:16;9.47;;;5.33;;
12900;SDS011;6518;50.930;5.344;2023-04-15T07:15:43;8.27;;;5.50;;
12900;SDS011;6518;50.930;5.344;2023-04-15T07:18:10;13.37;;;5.40;;
12900;SDS011;6518;50.930;5.344;2023-04-15T07:20:38;8.20;;;5.10;;
12900;SDS011;6518;50.930;5.344;2023-04-15T07:23:05;7.67;;;5.07;;
12900;SDS011;6518;50.930;5.344;2023-04-15T07:25:32;9.10;;;5.23;;
12900;SDS011;6518;50.930;5.344;2023-04-15T07:28:00;8.80;;;5.37;;
12900;SDS011;6518;50.930;5.344;2023-04-15T07:30:27;10.60;;;5.33;;
12900;SDS011;6518;50.930;5.344;2023-04-15T07:32:54;10.27;;;5.53;;
12900;SDS011;6518;50.930;5.344;2023-04-15T07:35:21;11.73;;;5.37;;
12900;SDS011;6518;50.930;5.344;2023-04-15T07:37:49;9.03;;;5.23;;
12900;SDS011;6518;50.930;5.344;2023-04-15T07:40:16;8.93;;;4.73;;
12900;SDS011;6518;50.930;5.344;2023-04-15T07:42:43;9.67;;;5.70;;
12900;SDS011;6518;50.930;5.344;2023-04-15T07:45:13;10.40;;;5.23;;
12900;SDS011;6518;50.930;5.344;2023-04-15T07:47:41;7.13;;;4.57;;
12900;SDS011;6518;50.930;5.344;2023-04-15T07:50:08;8.03;;;4.63;;
12900;SDS011;6518;50.930;5.344;2023-04-15T07:52:36;10.07;;;4.80;;
12900;SDS011;6518;50.930;5.344;2023-04-15T07:55:04;6.37;;;4.77;;
12900;SDS011;6518;50.930;5.344;2023-04-15T07:57:32;6.70;;;4.77;;
12900;SDS011;6518;50.930;5.344;2023-04-15T07:59:59;8.10;;;4.90;;
12900;SDS011;6518;50.930;5.344;2023-04-15T08:02:28;6.70;;;4.50;;
12900;SDS011;6518;50.930;5.344;2023-04-15T08:04:55;8.87;;;4.70;;
12900;SDS011;6518;50.930;5.344;2023-04-15T08:07:22;8.67;;;4.93;;
12900;SDS011;6518;50.930;5.344;2023-04-15T08:09:49;11.70;;;5.27;;
12900;SDS011;6518;50.930;5.344;2023-04-15T08:12:16;10.70;;;5.50;;
12900;SDS011;6518;50.930;5.344;2023-04-15T08:14:43;9.03;;;5.43;;
12900;SDS011;6518;50.930;5.344;2023-04-15T08:17:09;10.60;;;6.00;;
12900;SDS011;6518;50.930;5.344;2023-04-15T08:19:38;11.50;;;6.87;;
12900;SDS011;6518;50.930;5.344;2023-04-15T08:22:06;11.13;;;6.40;;
12900;SDS011;6518;50.930;5.344;2023-04-15T08:24:33;9.60;;;6.30;;
12900;SDS011;6518;50.930;5.344;2023-04-15T08:27:01;8.83;;;7.03;;
12900;SDS011;6518;50.930;5.344;2023-04-15T08:29:29;9.57;;;6.93;;
12900;SDS011;6518;50.930;5.344;2023-04-15T08:31:58;9.57;;;6.60;;
12900;SDS011;6518;50.930;5.344;2023-04-15T08:34:26;9.33;;;7.67;;
12900;SDS011;6518;50.930;5.344;2023-04-15T08:36:54;11.67;;;6.83;;
12900;SDS011;6518;50.930;5.344;2023-04-15T08:39:21;9.77;;;7.67;;
12900;SDS011;6518;50.930;5.344;2023-04-15T08:41:50;11.07;;;8.37;;
12900;SDS011;6518;50.930;5.344;2023-04-15T08:44:22;8.47;;;6.43;;
12900;SDS011;6518;50.930;5.344;2023-04-15T08:46:49;8.60;;;6.10;;
12900;SDS011;6518;50.930;5.344;2023-04-15T08:49:17;6.83;;;5.97;;
12900;SDS011;6518;50.930;5.344;2023-04-15T08:51:46;8.93;;;7.00;;
12900;SDS011;6518;50.930;5.344;2023-04-15T08:54:15;7.75;;;6.65;;
12900;SDS011;6518;50.930;5.344;2023-04-15T08:56:41;7.82;;;7.00;;
12900;SDS011;6518;50.930;5.344;2023-04-15T08:59:08;9.20;;;6.63;;
12900;SDS011;6518;50.930;5.344;2023-04-15T09:01:36;8.27;;;6.83;;
12900;SDS011;6518;50.930;5.344;2023-04-15T09:04:03;9.23;;;6.75;;
12900;SDS011;6518;50.930;5.344;2023-04-15T09:06:32;7.85;;;6.10;;
12900;SDS011;6518;50.930;5.344;2023-04-15T09:08:59;8.25;;;6.28;;
12900;SDS011;6518;50.930;5.344;2023-04-15T09:11:27;12.60;;;6.83;;
12900;SDS011;6518;50.930;5.344;2023-04-15T09:13:56;7.40;;;5.95;;
12900;SDS011;6518;50.930;5.344;2023-04-15T09:16:22;7.82;;;6.45;;
12900;SDS011;6518;50.930;5.344;2023-04-15T09:18:50;10.00;;;6.65;;
12900;SDS011;6518;50.930;5.344;2023-04-15T09:21:17;8.15;;;6.45;;
12900;SDS011;6518;50.930;5.344;2023-04-15T09:23:53;10.27;;;5.80;;
12900;SDS011;6518;50.930;5.344;2023-04-15T09:26:30;10.77;;;6.20;;
12900;SDS011;6518;50.930;5.344;2023-04-15T09:29:01;11.82;;;6.20;;
12900;SDS011;6518;50.930;5.344;2023-04-15T09:31:29;11.52;;;5.78;;
12900;SDS011;6518;50.930;5.344;2023-04-15T09:33:57;9.07;;;5.60;;
12900;SDS011;6518;50.930;5.344;2023-04-15T09:36:24;6.75;;;4.65;;
12900;SDS011;6518;50.930;5.344;2023-04-15T09:38:54;8.32;;;5.35;;
12900;SDS011;6518;50.930;5.344;2023-04-15T09:41:21;9.00;;;5.03;;
12900;SDS011;6518;50.930;5.344;2023-04-15T09:43:50;5.80;;;5.20;;
12900;SDS011;6518;50.930;5.344;2023-04-15T09:46:17;7.28;;;5.57;;
12900;SDS011;6518;50.930;5.344;2023-04-15T09:48:44;8.70;;;5.10;;
12900;SDS011;6518;50.930;5.344;2023-04-15T09:51:11;6.90;;;4.65;;
12900;SDS011;6518;50.930;5.344;2023-04-15T09:53:38;8.60;;;4.63;;
12900;SDS011;6518;50.930;5.344;2023-04-15T09:56:05;8.05;;;5.00;;
12900;SDS011;6518;50.930;5.344;2023-04-15T09:58:33;5.38;;;4.78;;
12900;SDS011;6518;50.930;5.344;2023-04-15T10:01:04;5.63;;;4.80;;
12900;SDS011;6518;50.930;5.344;2023-04-15T10:03:32;7.30;;;4.90;;
12900;SDS011;6518;50.930;5.344;2023-04-15T10:06:01;6.40;;;4.55;;
12900;SDS011;6518;50.930;5.344;2023-04-15T10:08:30;5.82;;;4.68;;
12900;SDS011;6518;50.930;5.344;2023-04-15T10:10:59;5.47;;;4.35;;
12900;SDS011;6518;50.930;5.344;2023-04-15T10:13:28;6.07;;;3.45;;
12900;SDS011;6518;50.930;5.344;2023-04-15T10:16:00;7.35;;;3.25;;
12900;SDS011;6518;50.930;5.344;2023-04-15T10:18:33;4.40;;;2.70;;
12900;SDS011;6518;50.930;5.344;2023-04-15T10:21:03;5.18;;;3.50;;
12900;SDS011;6518;50.930;5.344;2023-04-15T10:23:31;5.10;;;3.33;;
12900;SDS011;6518;50.930;5.344;2023-04-15T10:25:58;7.57;;;3.60;;
12900;SDS011;6518;50.930;5.344;2023-04-15T10:28:25;5.45;;;2.53;;
12900;SDS011;6518;50.930;5.344;2023-04-15T10:30:53;2.38;;;1.85;;
12900;SDS011;6518;50.930;5.344;2023-04-15T10:33:22;4.53;;;2.15;;
12900;SDS011;6518;50.930;5.344;2023-04-15T10:35:50;3.03;;;2.20;;
12900;SDS011;6518;50.930;5.344;2023-04-15T10:38:35;3.95;;;2.63;;
12900;SDS011;6518;50.930;5.344;2023-04-15T10:41:13;4.07;;;2.90;;
12900;SDS011;6518;50.930;5.344;2023-04-15T10:43:44;3.83;;;2.65;;
12900;SDS011;6518;50.930;5.344;2023-04-15T10:46:13;3.28;;;2.45;;
12900;SDS011;6518;50.930;5.344;2023-04-15T10:48:47;2.85;;;2.30;;
12900;SDS011;6518;50.930;5.344;2023-04-15T10:51:27;4.57;;;2.75;;
12900;SDS011;6518;50.930;5.344;2023-04-15T10:53:56;4.53;;;2.80;;
12900;SDS011;6518;50.930;5.344;2023-04-15T10:56:24;4.63;;;3.47;;
12900;SDS011;6518;50.930;5.344;2023-04-15T10:58:51;4.43;;;3.65;;
12900;SDS011;6518;50.930;5.344;2023-04-15T11:01:18;5.50;;;3.92;;
12900;SDS011;6518;50.930;5.344;2023-04-15T11:03:48;4.78;;;4.30;;
12900;SDS011;6518;50.930;5.344;2023-04-15T11:06:16;6.68;;;4.15;;
12900;SDS011;6518;50.930;5.344;2023-04-15T11:08:52;5.38;;;3.78;;
12900;SDS011;6518;50.930;5.344;2023-04-15T11:11:21;5.72;;;4.00;;
12900;SDS011;6518;50.930;5.344;2023-04-15T11:13:48;5.10;;;3.20;;
12900;SDS011;6518;50.930;5.344;2023-04-15T11:16:16;7.07;;;3.45;;
12900;SDS011;6518;50.930;5.344;2023-04-15T11:18:53;4.13;;;3.60;;
12900;SDS011;6518;50.930;5.344;2023-04-15T11:21:23;4.85;;;3.78;;
12900;SDS011;6518;50.930;5.344;2023-04-15T11:23:52;3.47;;;3.17;;
12900;SDS011;6518;50.930;5.344;2023-04-15T11:26:18;3.58;;;3.00;;
12900;SDS011;6518;50.930;5.344;2023-04-15T11:28:51;4.45;;;3.17;;
12900;SDS011;6518;50.930;5.344;2023-04-15T11:31:18;3.30;;;3.00;;
12900;SDS011;6518;50.930;5.344;2023-04-15T11:33:54;5.78;;;3.15;;
12900;SDS011;6518;50.930;5.344;2023-04-15T11:36:25;3.20;;;2.05;;
12900;SDS011;6518;50.930;5.344;2023-04-15T11:38:52;4.38;;;2.08;;
12900;SDS011;6518;50.930;5.344;2023-04-15T11:41:20;2.75;;;2.40;;
12900;SDS011;6518;50.930;5.344;2023-04-15T11:43:47;3.33;;;2.10;;
12900;SDS011;6518;50.930;5.344;2023-04-15T11:46:14;4.15;;;2.80;;
12900;SDS011;6518;50.930;5.344;2023-04-15T11:48:42;4.22;;;2.58;;
12900;SDS011;6518;50.930;5.344;2023-04-15T11:51:11;2.67;;;2.47;;
12900;SDS011;6518;50.930;5.344;2023-04-15T11:53:40;1.98;;;1.75;;
12900;SDS011;6518;50.930;5.344;2023-04-15T11:56:08;2.50;;;1.88;;
12900;SDS011;6518;50.930;5.344;2023-04-15T11:58:36;2.08;;;1.48;;
12900;SDS011;6518;50.930;5.344;2023-04-15T12:01:04;2.22;;;1.50;;
12900;SDS011;6518;50.930;5.344;2023-04-15T12:03:35;1.95;;;1.30;;
12900;SDS011;6518;50.930;5.344;2023-04-15T12:06:04;2.70;;;1.80;;
12900;SDS011;6518;50.930;5.344;2023-04-15T12:11:34;2.35;;;2.15;;
12900;SDS011;6518;50.930;5.344;2023-04-15T12:14:04;3.58;;;2.33;;
12900;SDS011;6518;50.930;5.344;2023-04-15T12:16:33;3.83;;;1.52;;
12900;SDS011;6518;50.930;5.344;2023-04-15T12:19:03;2.53;;;1.02;;
12900;SDS011;6518;50.930;5.344;2023-04-15T12:21:35;1.73;;;1.63;;
12900;SDS011;6518;50.930;5.344;2023-04-15T12:24:05;2.03;;;1.83;;
12900;SDS011;6518;50.930;5.344;2023-04-15T12:26:34;4.03;;;2.00;;
12900;SDS011;6518;50.930;5.344;2023-04-15T12:29:03;2.45;;;2.10;;
12900;SDS011;6518;50.930;5.344;2023-04-15T12:31:31;3.10;;;2.13;;
12900;SDS011;6518;50.930;5.344;2023-04-15T12:33:58;2.50;;;2.30;;
12900;SDS011;6518;50.930;5.344;2023-04-15T12:36:26;2.92;;;2.20;;
12900;SDS011;6518;50.930;5.344;2023-04-15T12:38:54;2.28;;;2.08;;
12900;SDS011;6518;50.930;5.344;2023-04-15T12:41:22;2.03;;;1.40;;
12900;SDS011;6518;50.930;5.344;2023-04-15T12:43:49;1.50;;;1.40;;
12900;SDS011;6518;50.930;5.344;2023-04-15T12:46:16;2.33;;;1.42;;
12900;SDS011;6518;50.930;5.344;2023-04-15T12:48:43;3.38;;;1.52;;
12900;SDS011;6518;50.930;5.344;2023-04-15T12:51:10;1.98;;;1.42;;
12900;SDS011;6518;50.930;5.344;2023-04-15T12:53:37;2.95;;;1.65;;
12900;SDS011;6518;50.930;5.344;2023-04-15T12:56:04;4.07;;;1.77;;
12900;SDS011;6518;50.930;5.344;2023-04-15T12:58:33;1.65;;;1.25;;
12900;SDS011;6518;50.930;5.344;2023-04-15T13:01:00;4.65;;;1.80;;
12900;SDS011;6518;50.930;5.344;2023-04-15T13:03:27;1.90;;;1.70;;
12900;SDS011;6518;50.930;5.344;2023-04-15T13:05:53;4.88;;;1.70;;
12900;SDS011;6518;50.930;5.344;2023-04-15T13:08:21;2.72;;;1.80;;
12900;SDS011;6518;50.930;5.344;2023-04-15T13:10:49;1.90;;;1.70;;
12900;SDS011;6518;50.930;5.344;2023-04-15T13:13:16;4.65;;;1.85;;
12900;SDS011;6518;50.930;5.344;2023-04-15T13:15:44;2.38;;;1.73;;
12900;SDS011;6518;50.930;5.344;2023-04-15T13:18:11;3.03;;;1.60;;
12900;SDS011;6518;50.930;5.344;2023-04-15T13:20:38;3.08;;;1.70;;
12900;SDS011;6518;50.930;5.344;2023-04-15T13:23:05;2.70;;;1.73;;
12900;SDS011;6518;50.930;5.344;2023-04-15T13:25:31;3.30;;;1.60;;
12900;SDS011;6518;50.930;5.344;2023-04-15T13:27:58;2.00;;;1.40;;
12900;SDS011;6518;50.930;5.344;2023-04-15T13:30:26;3.75;;;1.80;;
12900;SDS011;6518;50.930;5.344;2023-04-15T13:32:54;2.97;;;1.73;;
12900;SDS011;6518;50.930;5.344;2023-04-15T13:35:21;2.75;;;1.50;;
12900;SDS011;6518;50.930;5.344;2023-04-15T13:37:48;5.32;;;1.50;;
12900;SDS011;6518;50.930;5.344;2023-04-15T13:40:15;2.67;;;2.05;;
12900;SDS011;6518;50.930;5.344;2023-04-15T13:42:41;4.10;;;2.00;;
12900;SDS011;6518;50.930;5.344;2023-04-15T13:45:09;3.13;;;1.90;;
12900;SDS011;6518;50.930;5.344;2023-04-15T13:47:36;2.40;;;1.85;;
12900;SDS011;6518;50.930;5.344;2023-04-15T13:50:04;2.55;;;1.67;;
12900;SDS011;6518;50.930;5.344;2023-04-15T13:52:32;2.47;;;1.85;;
12900;SDS011;6518;50.930;5.344;2023-04-15T13:54:59;3.05;;;1.80;;
12900;SDS011;6518;50.930;5.344;2023-04-15T13:57:25;3.22;;;1.85;;
12900;SDS011;6518;50.930;5.344;2023-04-15T13:59:52;1.85;;;1.50;;
12900;SDS011;6518;50.930;5.344;2023-04-15T14:02:20;4.10;;;1.35;;
12900;SDS011;6518;50.930;5.344;2023-04-15T14:04:48;3.45;;;1.50;;
12900;SDS011;6518;50.930;5.344;2023-04-15T14:07:16;2.08;;;1.80;;
12900;SDS011;6518;50.930;5.344;2023-04-15T14:09:43;4.50;;;1.75;;
12900;SDS011;6518;50.930;5.344;2023-04-15T14:12:10;1.50;;;1.38;;
12900;SDS011;6518;50.930;5.344;2023-04-15T14:14:36;3.15;;;1.83;;
12900;SDS011;6518;50.930;5.344;2023-04-15T14:17:03;2.65;;;1.58;;
12900;SDS011;6518;50.930;5.344;2023-04-15T14:19:30;2.72;;;1.90;;
12900;SDS011;6518;50.930;5.344;2023-04-15T14:21:57;6.93;;;1.65;;
12900;SDS011;6518;50.930;5.344;2023-04-15T14:24:25;4.65;;;1.63;;
12900;SDS011;6518;50.930;5.344;2023-04-15T14:26:52;3.22;;;1.58;;
12900;SDS011;6518;50.930;5.344;2023-04-15T14:29:20;3.25;;;1.60;;
12900;SDS011;6518;50.930;5.344;2023-04-15T14:31:47;3.30;;;1.70;;
12900;SDS011;6518;50.930;5.344;2023-04-15T14:34:14;1.40;;;1.30;;
12900;SDS011;6518;50.930;5.344;2023-04-15T14:36:41;4.22;;;1.70;;
12900;SDS011;6518;50.930;5.344;2023-04-15T14:39:08;3.03;;;1.60;;
12900;SDS011;6518;50.930;5.344;2023-04-15T14:41:37;2.50;;;1.50;;
12900;SDS011;6518;50.930;5.344;2023-04-15T14:44:03;2.75;;;1.50;;
12900;SDS011;6518;50.930;5.344;2023-04-15T14:46:33;4.68;;;1.80;;
12900;SDS011;6518;50.930;5.344;2023-04-15T14:49:00;2.78;;;1.50;;
12900;SDS011;6518;50.930;5.344;2023-04-15T14:51:27;3.05;;;1.95;;
12900;SDS011;6518;50.930;5.344;2023-04-15T14:53:55;3.03;;;1.88;;
12900;SDS011;6518;50.930;5.344;2023-04-15T14:56:22;2.55;;;1.45;;
12900;SDS011;6518;50.930;5.344;2023-04-15T14:58:50;4.45;;;2.20;;
12900;SDS011;6518;50.930;5.344;2023-04-15T15:01:18;3.10;;;1.90;;
12900;SDS011;6518;50.930;5.344;2023-04-15T15:03:45;2.35;;;1.85;;
12900;SDS011;6518;50.930;5.344;2023-04-15T15:06:13;3.67;;;1.70;;